Time;durP1;ratioP1;P1;durP2;ratioP2;P2;SDS_P1;SDS_P2;PMS_P1;PMS_P2;Temp;Humidity;BMP_temperature;BMP_pressure;BME280_temperature;BME280_humidity;BME280_pressure;Samples;Min_cycle;Max_cycle;Signal;HPM_P1;HPM_P2
2023/11/25 00:01:05;;;;;;;2.47;0.80;;;9.00;93.50;;;;;;5027229;28;21016;-48
2023/11/25 00:03:34;;;;;;;3.33;0.80;;;9.00;93.50;;;;;;5026829;28;20830;-48
2023/11/25 00:06:03;;;;;;;1.63;0.80;;;9.00;93.40;;;;;;5025828;28;20988;-48
2023/11/25 00:08:32;;;;;;;2.80;1.20;;;9.00;93.60;;;;;;5027757;28;20559;-45
2023/11/25 00:11:00;;;;;;;1.07;0.50;;;9.00;93.60;;;;;;5023019;28;20448;-47
2023/11/25 00:13:28;;;;;;;4.50;1.07;;;9.00;93.60;;;;;;5028043;28;20452;-48
2023/11/25 00:15:57;;;;;;;2.63;0.80;;;9.00;93.60;;;;;;5031356;28;20528;-45
2023/11/25 00:18:24;;;;;;;1.17;0.50;;;9.00;93.60;;;;;;5028171;28;20996;-45
2023/11/25 00:20:53;;;;;;;1.93;0.90;;;9.00;93.60;;;;;;5026413;28;22358;-46
2023/11/25 00:23:21;;;;;;;2.03;1.00;;;9.00;93.60;;;;;;5028421;28;20523;-46
2023/11/25 00:25:53;;;;;;;2.20;0.93;;;9.00;93.50;;;;;;5022176;28;20973;-45
2023/11/25 00:28:21;;;;;;;1.83;0.73;;;9.00;93.50;;;;;;5028175;28;21026;-47
2023/11/25 00:30:49;;;;;;;2.37;0.90;;;9.00;93.80;;;;;;5028021;28;20997;-47
2023/11/25 00:33:18;;;;;;;2.07;0.90;;;9.00;93.50;;;;;;5043505;28;20578;-46
2023/11/25 00:35:48;;;;;;;2.13;0.70;;;9.00;93.60;;;;;;5030617;28;20440;-45
2023/11/25 00:38:19;;;;;;;2.40;0.60;;;9.00;93.60;;;;;;5028210;28;20579;-46
2023/11/25 00:40:47;;;;;;;2.80;0.83;;;9.00;93.60;;;;;;5026333;28;20436;-48
2023/11/25 00:43:16;;;;;;;1.40;0.57;;;9.00;93.60;;;;;;5031848;28;21089;-48
2023/11/25 00:45:46;;;;;;;2.20;0.70;;;9.00;93.70;;;;;;5031898;28;20498;-47
2023/11/25 00:48:14;;;;;;;1.90;0.70;;;9.00;93.70;;;;;;5031429;28;20554;-43
2023/11/25 00:50:42;;;;;;;1.93;0.90;;;9.00;93.60;;;;;;5028270;28;20515;-47
2023/11/25 00:53:10;;;;;;;1.60;0.73;;;9.00;93.60;;;;;;5046754;28;20516;-47
2023/11/25 00:55:38;;;;;;;2.23;0.90;;;9.00;93.60;;;;;;5026010;28;20496;-44
2023/11/25 00:58:07;;;;;;;1.80;0.80;;;9.00;93.70;;;;;;5031166;28;20470;-49
2023/11/25 01:00:36;;;;;;;1.57;0.60;;;9.00;93.60;;;;;;5029887;28;20444;-48
2023/11/25 01:03:06;;;;;;;1.10;0.47;;;9.00;93.60;;;;;;5032386;28;20470;-46
2023/11/25 01:05:34;;;;;;;3.43;1.20;;;9.00;93.60;;;;;;5029531;28;21004;-44
2023/11/25 01:08:02;;;;;;;1.77;0.70;;;9.00;93.70;;;;;;5030068;28;20543;-45
2023/11/25 01:10:30;;;;;;;2.57;0.83;;;8.90;93.70;;;;;;5027837;28;20440;-44
2023/11/25 01:12:59;;;;;;;1.97;0.60;;;9.00;93.70;;;;;;5031432;28;20546;-45
2023/11/25 01:15:26;;;;;;;1.63;0.67;;;9.00;93.70;;;;;;5031411;28;20420;-45
2023/11/25 01:17:57;;;;;;;1.57;0.70;;;9.00;93.70;;;;;;5031061;28;21019;-47
2023/11/25 01:20:25;;;;;;;2.85;0.77;;;8.90;93.70;;;;;;5028288;28;20836;-46
2023/11/25 01:22:54;;;;;;;2.50;0.90;;;9.00;93.70;;;;;;5031298;28;20221;-48
2023/11/25 01:25:22;;;;;;;1.40;0.60;;;8.90;93.80;;;;;;5027157;28;20477;-45
2023/11/25 01:27:50;;;;;;;2.67;0.87;;;8.90;93.70;;;;;;5027242;28;20472;-47
2023/11/25 01:30:19;;;;;;;2.63;0.90;;;8.90;93.70;;;;;;5027169;28;20506;-44
2023/11/25 01:32:48;;;;;;;2.07;0.80;;;8.90;93.70;;;;;;5030829;28;20459;-49
2023/11/25 01:35:18;;;;;;;1.40;0.47;;;8.90;93.60;;;;;;5022842;28;21019;-46
2023/11/25 01:37:46;;;;;;;3.37;1.10;;;9.00;93.70;;;;;;5030490;28;20468;-46
2023/11/25 01:40:15;;;;;;;3.73;0.97;;;8.90;93.60;;;;;;5041202;28;20447;-51
2023/11/25 01:42:43;;;;;;;1.47;1.07;;;8.90;93.60;;;;;;5029920;28;20981;-46
2023/11/25 01:45:12;;;;;;;3.17;1.23;;;8.90;93.60;;;;;;5031002;28;21014;-47
2023/11/25 01:47:41;;;;;;;1.70;1.20;;;8.90;93.60;;;;;;5029894;28;20708;-49
2023/11/25 01:50:10;;;;;;;2.20;1.00;;;8.90;93.60;;;;;;5028429;28;20523;-47
2023/11/25 01:52:41;;;;;;;1.80;0.90;;;8.90;93.60;;;;;;5029051;28;21032;-47
2023/11/25 01:55:10;;;;;;;3.60;0.80;;;8.90;93.60;;;;;;5024494;28;20449;-46
2023/11/25 01:57:39;;;;;;;2.10;0.90;;;8.90;93.70;;;;;;5028504;28;20471;-46
2023/11/25 02:00:09;;;;;;;3.00;0.60;;;8.90;93.60;;;;;;5029884;28;20526;-49
2023/11/25 02:02:42;;;;;;;4.50;0.80;;;8.90;93.60;;;;;;5045940;28;20517;-46
2023/11/25 02:05:12;;;;;;;1.85;0.77;;;8.90;93.60;;;;;;5028783;28;20452;-45
2023/11/25 02:07:42;;;;;;;1.52;0.70;;;8.90;93.60;;;;;;5029891;28;20797;-46
2023/11/25 02:10:11;;;;;;;1.25;0.60;;;8.90;93.60;;;;;;5024814;28;20221;-43
2023/11/25 02:12:40;;;;;;;2.60;1.00;;;8.90;93.70;;;;;;5043106;28;20232;-48
2023/11/25 02:15:11;;;;;;;1.80;0.77;;;8.80;93.60;;;;;;5029385;28;20434;-46
2023/11/25 02:17:42;;;;;;;2.17;1.33;;;8.90;93.60;;;;;;5028313;28;20240;-44
2023/11/25 02:20:13;;;;;;;2.40;0.80;;;8.80;93.50;;;;;;5025985;28;20455;-45
2023/11/25 02:22:52;;;;;;;2.90;0.70;;;8.90;93.70;;;;;;5043777;28;20225;-47
2023/11/25 02:25:21;;;;;;;3.67;0.73;;;8.90;93.70;;;;;;5021383;28;20535;-46
2023/11/25 02:27:51;;;;;;;1.33;0.60;;;8.90;94.10;;;;;;5028345;28;20300;-46
2023/11/25 02:30:19;;;;;;;3.50;0.90;;;8.90;93.70;;;;;;5029889;28;20181;-48
2023/11/25 02:32:47;;;;;;;2.65;1.00;;;8.80;93.60;;;;;;5029086;28;20975;-47
2023/11/25 02:35:16;;;;;;;1.87;0.70;;;8.80;93.70;;;;;;5027551;28;20197;-45
2023/11/25 02:37:45;;;;;;;2.00;0.70;;;8.80;93.70;;;;;;5028385;28;20513;-47
2023/11/25 02:40:18;;;;;;;2.85;0.90;;;8.80;93.70;;;;;;5025363;28;20193;-45
2023/11/25 02:42:47;;;;;;;1.65;0.82;;;8.80;93.60;;;;;;5028906;28;20217;-45
2023/11/25 02:45:19;;;;;;;3.10;0.90;;;8.80;93.70;;;;;;5028910;28;20197;-48
2023/11/25 02:47:48;;;;;;;2.10;0.70;;;8.80;93.60;;;;;;5024770;28;20487;-46
2023/11/25 02:50:17;;;;;;;1.80;1.57;;;8.80;93.60;;;;;;5039968;28;20432;-44
2023/11/25 02:52:46;;;;;;;2.20;0.93;;;8.80;93.70;;;;;;5028741;28;20554;-45
2023/11/25 02:55:16;;;;;;;2.13;1.17;;;8.80;93.60;;;;;;5023445;28;20658;-45
2023/11/25 02:57:46;;;;;;;3.80;1.10;;;8.80;93.70;;;;;;5027595;28;21114;-48
2023/11/25 03:00:27;;;;;;;2.72;1.00;;;8.80;93.60;;;;;;5028888;28;20431;-49
2023/11/25 03:03:09;;;;;;;3.47;0.98;;;8.80;93.60;;;;;;5026350;28;20328;-47
2023/11/25 03:05:38;;;;;;;2.35;0.88;;;8.80;93.70;;;;;;5027220;28;20201;-47
2023/11/25 03:08:09;;;;;;;1.30;0.70;;;8.80;93.60;;;;;;5029032;28;20217;-50
2023/11/25 03:10:42;;;;;;;4.17;0.93;;;8.80;93.50;;;;;;5024766;28;20958;-46
2023/11/25 03:13:10;;;;;;;1.97;0.70;;;8.80;93.50;;;;;;5044716;28;20474;-47
2023/11/25 03:15:39;;;;;;;3.97;0.83;;;8.80;93.60;;;;;;5029953;28;20560;-43
2023/11/25 03:18:09;;;;;;;1.30;0.70;;;8.80;93.60;;;;;;5027478;28;20468;-47
2023/11/25 03:20:39;;;;;;;1.15;0.57;;;8.80;93.60;;;;;;5026455;28;20216;-45
2023/11/25 03:23:07;;;;;;;1.93;1.00;;;8.80;93.60;;;;;;5028752;28;20223;-45
2023/11/25 03:25:36;;;;;;;2.20;0.70;;;8.80;93.60;;;;;;5024474;28;20456;-45
2023/11/25 03:28:08;;;;;;;3.05;1.02;;;8.80;93.60;;;;;;5029015;28;20230;-45
2023/11/25 03:30:36;;;;;;;3.25;0.90;;;8.70;93.50;;;;;;5029412;28;20209;-46
2023/11/25 03:33:05;;;;;;;1.55;0.82;;;8.70;93.50;;;;;;5027221;28;20266;-45
2023/11/25 03:35:34;;;;;;;2.17;1.08;;;8.80;93.50;;;;;;5030166;28;20234;-44
2023/11/25 03:38:02;;;;;;;3.30;0.70;;;8.70;93.50;;;;;;5030929;28;20220;-45
2023/11/25 03:40:31;;;;;;;2.00;1.03;;;8.70;93.50;;;;;;5022746;28;20201;-45
2023/11/25 03:42:59;;;;;;;3.55;1.25;;;8.70;93.50;;;;;;5028886;28;20468;-46
2023/11/25 03:45:29;;;;;;;1.55;0.70;;;8.70;93.50;;;;;;5029425;28;20596;-47
2023/11/25 03:47:57;;;;;;;1.92;0.65;;;8.70;93.60;;;;;;5026448;28;20340;-44
2023/11/25 03:50:25;;;;;;;3.58;0.95;;;8.70;93.60;;;;;;5021878;28;20200;-45
2023/11/25 03:52:54;;;;;;;2.17;0.90;;;8.70;93.50;;;;;;5022897;28;20307;-46
2023/11/25 03:55:23;;;;;;;2.95;0.95;;;8.70;93.50;;;;;;5023476;28;20536;-48
2023/11/25 03:57:51;;;;;;;2.93;1.00;;;8.70;93.50;;;;;;5023536;28;20213;-47
2023/11/25 04:00:22;;;;;;;1.83;0.75;;;8.70;93.50;;;;;;5026909;28;20447;-45
2023/11/25 04:02:52;;;;;;;1.92;1.10;;;8.70;93.50;;;;;;5029074;28;20221;-43
2023/11/25 04:05:22;;;;;;;3.22;1.20;;;8.70;93.50;;;;;;5025918;28;20222;-46
2023/11/25 04:07:50;;;;;;;2.05;0.85;;;8.70;93.50;;;;;;5031185;28;20224;-47
2023/11/25 04:10:18;;;;;;;2.97;1.02;;;8.70;93.50;;;;;;5022786;28;20198;-47
2023/11/25 04:12:48;;;;;;;3.05;1.00;;;8.70;93.60;;;;;;5031337;28;20653;-45
2023/11/25 04:15:19;;;;;;;2.08;0.93;;;8.70;93.50;;;;;;5028210;28;20202;-46
2023/11/25 04:17:48;;;;;;;3.17;1.20;;;8.70;93.50;;;;;;5032255;28;20237;-45
2023/11/25 04:20:24;;;;;;;1.88;0.70;;;8.70;93.60;;;;;;5027961;28;20198;-44
2023/11/25 04:22:53;;;;;;;2.13;0.80;;;8.70;93.50;;;;;;5028024;28;20215;-45
2023/11/25 04:25:21;;;;;;;3.22;0.65;;;8.70;93.50;;;;;;5027885;28;20239;-48
2023/11/25 04:27:50;;;;;;;2.13;0.90;;;8.70;93.60;;;;;;5030763;28;20230;-46
2023/11/25 04:30:18;;;;;;;2.33;1.10;;;8.70;93.50;;;;;;5027336;28;20503;-44
2023/11/25 04:32:48;;;;;;;2.13;0.97;;;8.60;93.50;;;;;;5029546;28;20311;-46
2023/11/25 04:35:18;;;;;;;1.90;0.70;;;8.60;93.50;;;;;;5027786;28;20416;-46
2023/11/25 04:37:47;;;;;;;2.13;0.73;;;8.60;93.50;;;;;;5031737;28;20244;-44
2023/11/25 04:40:16;;;;;;;3.47;0.90;;;8.70;93.60;;;;;;5027589;28;20480;-46
2023/11/25 04:42:45;;;;;;;2.95;1.00;;;8.60;93.50;;;;;;5030533;28;20234;-46
2023/11/25 04:45:16;;;;;;;2.57;0.90;;;8.70;93.60;;;;;;5031945;28;20602;-46
2023/11/25 04:47:46;;;;;;;2.10;0.82;;;8.70;93.50;;;;;;5031309;28;20467;-48
2023/11/25 04:50:15;;;;;;;2.63;0.90;;;8.60;93.50;;;;;;5027632;28;20224;-46
2023/11/25 04:52:44;;;;;;;2.63;0.83;;;8.60;93.50;;;;;;5029744;28;20262;-47
2023/11/25 04:55:14;;;;;;;3.78;1.20;;;8.60;93.50;;;;;;5028621;28;20676;-44
2023/11/25 04:57:42;;;;;;;3.80;1.20;;;8.60;93.50;;;;;;5029576;28;20724;-48
2023/11/25 05:00:13;;;;;;;1.77;0.57;;;8.60;93.60;;;;;;5031642;28;20799;-46
2023/11/25 05:02:43;;;;;;;2.05;1.13;;;8.60;93.50;;;;;;5029844;28;20320;-45
2023/11/25 05:05:12;;;;;;;6.55;1.30;;;8.60;93.50;;;;;;5025710;28;20249;-47
2023/11/25 05:07:40;;;;;;;4.93;0.95;;;8.60;93.50;;;;;;5031309;28;20221;-44
2023/11/25 05:10:11;;;;;;;2.80;1.10;;;8.60;93.50;;;;;;5027498;28;20276;-48
2023/11/25 05:12:41;;;;;;;3.28;0.95;;;8.60;93.50;;;;;;5028983;28;20525;-48
2023/11/25 05:15:10;;;;;;;2.50;0.90;;;8.60;93.50;;;;;;5031721;28;20197;-48
2023/11/25 05:17:39;;;;;;;2.40;1.00;;;8.60;93.50;;;;;;5031141;28;20240;-45
2023/11/25 05:20:13;;;;;;;4.53;2.10;;;8.60;93.50;;;;;;5025156;28;20208;-48
2023/11/25 05:22:41;;;;;;;2.58;0.70;;;8.60;93.50;;;;;;5031335;28;20299;-48
2023/11/25 05:25:11;;;;;;;4.13;0.95;;;8.60;93.50;;;;;;5029340;28;20545;-45
2023/11/25 05:27:40;;;;;;;1.50;0.80;;;8.60;93.50;;;;;;5030506;28;20722;-46
2023/11/25 05:30:09;;;;;;;5.15;1.30;;;8.60;93.50;;;;;;5031293;28;20237;-50
2023/11/25 05:32:37;;;;;;;2.45;1.00;;;8.60;93.40;;;;;;5028901;28;20225;-46
2023/11/25 05:35:06;;;;;;;2.50;1.08;;;8.60;93.50;;;;;;5031356;28;20204;-48
2023/11/25 05:37:35;;;;;;;2.95;1.10;;;8.60;93.60;;;;;;5030615;28;20219;-46
2023/11/25 05:40:05;;;;;;;3.90;1.23;;;8.60;93.40;;;;;;5028698;28;20189;-44
2023/11/25 05:42:38;;;;;;;1.90;0.80;;;8.50;93.40;;;;;;5027860;28;20224;-44
2023/11/25 05:45:10;;;;;;;3.40;1.30;;;8.50;93.40;;;;;;5031384;28;20424;-45
2023/11/25 05:47:38;;;;;;;1.92;0.80;;;8.50;93.50;;;;;;5029071;28;20259;-47
2023/11/25 05:50:09;;;;;;;3.83;0.82;;;8.50;93.50;;;;;;5045388;28;20205;-46
2023/11/25 05:52:39;;;;;;;2.85;0.88;;;8.50;93.50;;;;;;5028519;28;20229;-45
2023/11/25 05:55:08;;;;;;;5.72;0.93;;;8.50;93.50;;;;;;5026637;28;21257;-45
2023/11/25 05:57:37;;;;;;;2.58;0.90;;;8.50;93.50;;;;;;5028480;28;20504;-47
2023/11/25 06:00:11;;;;;;;2.72;1.13;;;8.50;93.50;;;;;;5028195;28;20191;-46
2023/11/25 06:02:40;;;;;;;2.33;0.60;;;8.50;93.40;;;;;;5029915;28;20217;-47
2023/11/25 06:05:09;;;;;;;2.65;0.88;;;8.50;93.50;;;;;;5022426;28;20530;-48
2023/11/25 06:07:37;;;;;;;2.15;0.85;;;8.50;93.50;;;;;;5030081;28;20248;-44
2023/11/25 06:10:07;;;;;;;2.80;1.00;;;8.50;93.50;;;;;;5027154;28;20201;-44
2023/11/25 06:12:35;;;;;;;3.40;1.55;;;8.50;93.50;;;;;;5027511;28;20245;-47
2023/11/25 06:15:05;;;;;;;3.60;0.95;;;8.50;93.30;;;;;;5030637;28;20223;-45
2023/11/25 06:17:33;;;;;;;2.05;1.17;;;8.50;93.50;;;;;;5030241;28;20237;-46
2023/11/25 06:20:01;;;;;;;4.95;1.25;;;8.50;93.50;;;;;;5041986;28;20200;-47
2023/11/25 06:22:29;;;;;;;8.13;1.63;;;8.50;93.40;;;;;;5028994;28;20241;-45
2023/11/25 06:25:00;;;;;;;2.53;0.95;;;8.50;93.50;;;;;;5027516;28;20191;-47
2023/11/25 06:27:28;;;;;;;2.20;0.93;;;8.50;93.50;;;;;;5029484;28;20598;-45
2023/11/25 06:29:58;;;;;;;2.28;0.82;;;8.50;93.40;;;;;;5029636;28;20555;-44
2023/11/25 06:32:28;;;;;;;2.30;0.60;;;8.50;93.50;;;;;;5029647;28;20247;-46
2023/11/25 06:34:56;;;;;;;3.97;1.38;;;8.50;93.50;;;;;;5026981;28;20653;-46
2023/11/25 06:37:25;;;;;;;1.75;0.80;;;8.50;93.40;;;;;;5032289;28;20731;-44
2023/11/25 06:39:53;;;;;;;2.35;1.05;;;8.50;93.50;;;;;;5028159;28;20193;-47
2023/11/25 06:42:22;;;;;;;2.42;0.80;;;8.50;93.50;;;;;;5029057;28;20285;-46
2023/11/25 06:44:51;;;;;;;3.63;1.05;;;8.40;93.50;;;;;;5029767;28;20200;-44
2023/11/25 06:47:19;;;;;;;1.75;0.77;;;8.40;93.50;;;;;;5030379;28;20277;-46
2023/11/25 06:49:50;;;;;;;4.28;1.98;;;8.50;93.50;;;;;;5024578;28;20412;-45
2023/11/25 06:52:19;;;;;;;5.45;1.27;;;8.40;93.40;;;;;;5024045;28;20258;-49
2023/11/25 06:54:47;;;;;;;2.60;1.13;;;8.50;93.50;;;;;;5028689;28;20199;-49
2023/11/25 06:57:19;;;;;;;1.40;0.70;;;8.40;93.50;;;;;;5027122;28;20239;-45
2023/11/25 06:59:47;;;;;;;3.20;1.00;;;8.40;93.50;;;;;;5028919;28;20196;-47
2023/11/25 07:02:15;;;;;;;2.92;1.08;;;8.40;93.50;;;;;;5028575;28;20219;-45
2023/11/25 07:04:43;;;;;;;1.83;0.90;;;8.40;93.50;;;;;;5026230;28;20586;-47
2023/11/25 07:07:13;;;;;;;2.45;1.02;;;8.40;93.50;;;;;;5028996;28;20580;-47
2023/11/25 07:09:41;;;;;;;4.78;1.75;;;8.40;93.50;;;;;;5029417;28;20204;-45
2023/11/25 07:12:10;;;;;;;3.75;1.40;;;8.40;93.50;;;;;;5021925;28;20242;-45
2023/11/25 07:14:38;;;;;;;2.40;1.20;;;8.40;93.50;;;;;;5029067;28;20573;-44
2023/11/25 07:17:06;;;;;;;4.22;0.80;;;8.40;93.50;;;;;;5029032;28;20246;-47
2023/11/25 07:19:34;;;;;;;2.47;0.93;;;8.40;93.60;;;;;;5024487;28;20207;-47
2023/11/25 07:22:03;;;;;;;4.40;0.82;;;8.40;93.60;;;;;;5028735;28;20208;-48
2023/11/25 07:24:34;;;;;;;3.97;0.70;;;8.40;93.60;;;;;;5031279;28;20710;-45
2023/11/25 07:27:05;;;;;;;3.58;1.13;;;8.40;93.60;;;;;;5027015;28;20518;-47
2023/11/25 07:29:33;;;;;;;2.33;0.85;;;8.40;93.60;;;;;;5028014;28;20229;-43
2023/11/25 07:32:02;;;;;;;3.30;1.13;;;8.40;93.60;;;;;;5028147;28;20200;-46
2023/11/25 07:34:31;;;;;;;2.35;1.10;;;8.40;93.60;;;;;;5027149;28;20687;-49
2023/11/25 07:37:00;;;;;;;2.60;0.80;;;8.40;93.60;;;;;;5032701;28;20224;-48
2023/11/25 07:39:29;;;;;;;1.85;1.17;;;8.40;93.60;;;;;;5033074;28;20313;-47
2023/11/25 07:42:00;;;;;;;5.25;2.25;;;8.40;93.60;;;;;;5024559;28;20201;-47
2023/11/25 07:44:30;;;;;;;7.47;3.33;;;8.40;93.60;;;;;;5010148;28;20264;-47
2023/11/25 07:46:59;;;;;;;10.68;3.45;;;8.30;92.10;;;;;;5012260;28;20226;-46
2023/11/25 07:49:29;;;;;;;5.55;2.10;;;8.10;92.70;;;;;;5019772;28;20702;-45
2023/11/25 07:51:57;;;;;;;3.92;2.08;;;8.20;93.20;;;;;;5019041;28;20200;-46
2023/11/25 07:54:25;;;;;;;2.78;1.55;;;8.10;93.20;;;;;;5026667;28;20225;-46
2023/11/25 07:56:53;;;;;;;5.22;1.98;;;8.20;93.30;;;;;;5028585;28;20215;-44
2023/11/25 07:59:22;;;;;;;5.18;2.38;;;8.20;93.30;;;;;;5011695;28;20210;-45
2023/11/25 08:01:51;;;;;;;6.43;2.15;;;8.20;93.30;;;;;;5011723;28;20202;-45
2023/11/25 08:04:19;;;;;;;4.38;1.92;;;8.20;93.30;;;;;;5007045;28;20220;-43
2023/11/25 08:06:48;;;;;;;4.50;2.20;;;8.20;93.40;;;;;;5013163;28;20211;-46
2023/11/25 08:09:18;;;;;;;5.70;1.75;;;8.20;93.40;;;;;;5012024;28;20217;-45
2023/11/25 08:11:46;;;;;;;6.13;2.13;;;8.20;93.40;;;;;;5010456;28;20231;-46
2023/11/25 08:14:14;;;;;;;5.22;1.80;;;8.30;93.30;;;;;;5012804;28;20726;-45
2023/11/25 08:16:44;;;;;;;4.25;2.05;;;8.30;93.30;;;;;;5013102;28;20194;-49
2023/11/25 08:19:14;;;;;;;4.82;1.77;;;8.30;93.30;;;;;;5007466;28;20246;-45
2023/11/25 08:21:42;;;;;;;2.67;1.63;;;8.30;93.30;;;;;;5011291;28;20194;-44
2023/11/25 08:24:10;;;;;;;3.08;1.23;;;8.30;93.30;;;;;;5010711;28;20492;-46
2023/11/25 08:26:38;;;;;;;7.70;3.83;;;8.40;93.30;;;;;;5008969;28;20247;-46
2023/11/25 08:29:07;;;;;;;2.63;1.60;;;8.40;93.20;;;;;;5010834;28;20212;-46
2023/11/25 08:31:35;;;;;;;5.95;1.70;;;8.40;93.30;;;;;;5010060;28;20210;-47
2023/11/25 08:34:07;;;;;;;3.17;1.70;;;8.40;93.30;;;;;;5007771;28;20281;-46
2023/11/25 08:36:36;;;;;;;2.57;1.13;;;8.40;93.30;;;;;;5012707;28;20200;-46
2023/11/25 08:39:04;;;;;;;4.05;1.83;;;8.40;93.10;;;;;;5011915;28;20471;-44
2023/11/25 08:41:32;;;;;;;5.35;1.30;;;8.40;93.20;;;;;;5010608;28;20192;-45
2023/11/25 08:44:00;;;;;;;2.67;1.58;;;8.40;93.10;;;;;;5012562;28;20240;-46
2023/11/25 08:46:28;;;;;;;5.22;1.35;;;8.50;93.20;;;;;;5012134;28;20193;-44
2023/11/25 08:48:57;;;;;;;5.18;1.75;;;8.50;93.30;;;;;;5007733;28;20245;-45
2023/11/25 08:51:27;;;;;;;4.30;1.40;;;8.40;93.20;;;;;;5011739;28;20234;-48
2023/11/25 08:53:55;;;;;;;2.97;1.97;;;8.50;93.10;;;;;;5011820;28;21024;-47
2023/11/25 08:56:24;;;;;;;2.22;1.40;;;8.50;93.10;;;;;;5010837;28;20440;-45
2023/11/25 08:58:57;;;;;;;2.63;1.25;;;8.50;93.10;;;;;;5008838;28;20597;-46
2023/11/25 09:01:39;;;;;;;3.03;1.75;;;8.50;93.20;;;;;;5011285;28;20202;-47
2023/11/25 09:04:07;;;;;;;5.53;1.20;;;8.50;93.20;;;;;;5010843;28;20610;-44
2023/11/25 09:06:39;;;;;;;3.80;1.63;;;8.50;93.20;;;;;;5010539;28;20895;-45
2023/11/25 09:09:08;;;;;;;2.83;1.13;;;8.50;93.10;;;;;;5011541;28;20875;-46
2023/11/25 09:11:36;;;;;;;3.88;1.60;;;8.50;93.10;;;;;;5009736;28;20703;-44
2023/11/25 09:14:05;;;;;;;3.25;1.23;;;8.50;93.10;;;;;;5010607;28;20713;-47
2023/11/25 09:16:33;;;;;;;3.10;1.10;;;8.50;93.10;;;;;;5009303;28;20247;-47
2023/11/25 09:19:02;;;;;;;4.07;1.50;;;8.50;93.10;;;;;;5006246;28;20488;-44
2023/11/25 09:21:31;;;;;;;3.20;1.60;;;8.50;93.10;;;;;;5007509;28;20607;-48
2023/11/25 09:24:04;;;;;;;4.43;1.40;;;8.50;93.10;;;;;;5008129;28;20220;-48
2023/11/25 09:26:32;;;;;;;4.30;1.15;;;8.50;93.00;;;;;;5006768;28;20538;-48
2023/11/25 09:29:01;;;;;;;2.97;1.52;;;8.50;93.00;;;;;;5005658;28;20205;-46
2023/11/25 09:31:29;;;;;;;4.35;1.25;;;8.60;93.00;;;;;;5006116;28;20213;-45
2023/11/25 09:33:59;;;;;;;4.18;1.67;;;8.50;93.00;;;;;;5005365;28;20289;-46
2023/11/25 09:36:27;;;;;;;2.97;1.07;;;8.50;93.00;;;;;;5011181;28;20193;-45
2023/11/25 09:38:56;;;;;;;5.10;1.50;;;8.50;93.00;;;;;;5011060;28;20516;-48
2023/11/25 09:41:25;;;;;;;4.38;1.50;;;8.50;92.90;;;;;;5008001;28;20209;-47
2023/11/25 09:43:54;;;;;;;3.05;1.15;;;8.60;93.00;;;;;;5008782;28;20222;-45
2023/11/25 09:46:22;;;;;;;5.80;1.40;;;8.50;93.00;;;;;;5011639;28;20285;-46
2023/11/25 09:48:50;;;;;;;5.68;1.75;;;8.50;93.00;;;;;;5007795;28;20221;-47
2023/11/25 09:51:23;;;;;;;2.22;1.30;;;8.50;93.00;;;;;;5004887;28;20206;-46
2023/11/25 09:53:57;;;;;;;4.13;1.48;;;8.50;93.00;;;;;;5010441;28;20273;-45
2023/11/25 09:56:26;;;;;;;1.88;1.10;;;8.50;93.10;;;;;;5005361;28;20194;-47
2023/11/25 09:58:55;;;;;;;2.42;1.65;;;8.50;93.00;;;;;;5009289;28;20222;-47
2023/11/25 10:01:23;;;;;;;3.30;1.60;;;8.60;93.00;;;;;;5024972;28;20225;-45
2023/11/25 10:03:55;;;;;;;5.65;1.27;;;8.50;93.00;;;;;;5002740;28;20308;-47
2023/11/25 10:06:25;;;;;;;3.58;1.40;;;8.60;93.00;;;;;;5024405;28;20209;-46
2023/11/25 10:08:53;;;;;;;5.65;1.33;;;8.60;93.00;;;;;;5008364;28;20268;-46
2023/11/25 10:11:23;;;;;;;3.10;1.40;;;8.60;93.50;;;;;;5006470;28;20222;-45
2023/11/25 10:13:52;;;;;;;3.60;1.47;;;8.60;93.00;;;;;;5008930;28;20609;-45
2023/11/25 10:16:27;;;;;;;4.75;1.58;;;8.60;93.00;;;;;;5006581;28;20468;-49
2023/11/25 10:18:56;;;;;;;5.10;1.50;;;8.60;93.00;;;;;;5004839;28;20229;-45
2023/11/25 10:21:25;;;;;;;2.58;1.33;;;8.60;93.00;;;;;;5006849;28;20437;-48
2023/11/25 10:23:54;;;;;;;2.83;1.00;;;8.60;93.00;;;;;;5008711;28;20232;-47
2023/11/25 10:26:23;;;;;;;4.57;1.45;;;8.60;93.00;;;;;;5007572;28;20198;-45
2023/11/25 10:28:55;;;;;;;3.43;1.30;;;8.60;93.00;;;;;;5008426;28;20217;-45
2023/11/25 10:31:24;;;;;;;3.05;0.98;;;8.60;92.90;;;;;;5000367;28;20469;-48
2023/11/25 10:33:56;;;;;;;3.90;1.57;;;8.60;92.90;;;;;;5013469;28;20229;-50
2023/11/25 10:36:24;;;;;;;2.50;1.10;;;8.60;92.90;;;;;;5010654;28;20487;-46
2023/11/25 10:38:54;;;;;;;2.93;1.60;;;8.60;92.90;;;;;;5023510;28;20861;-48
2023/11/25 10:41:22;;;;;;;2.20;1.20;;;8.60;92.90;;;;;;5022059;28;20469;-47
2023/11/25 10:43:50;;;;;;;2.57;1.30;;;8.60;93.00;;;;;;5010398;28;21020;-45
2023/11/25 10:46:22;;;;;;;2.42;1.20;;;8.60;92.90;;;;;;5007529;28;20433;-44
2023/11/25 10:48:51;;;;;;;3.63;0.95;;;8.60;93.20;;;;;;5008512;28;20613;-47
2023/11/25 10:51:21;;;;;;;1.30;0.70;;;8.60;92.90;;;;;;5003498;28;20251;-46
2023/11/25 10:53:51;;;;;;;2.50;0.82;;;8.70;92.90;;;;;;5008526;28;20245;-48
2023/11/25 10:56:20;;;;;;;2.57;1.10;;;8.60;92.90;;;;;;4998846;28;20198;-46
2023/11/25 10:58:51;;;;;;;3.03;1.17;;;8.60;92.90;;;;;;5006896;28;20840;-45
2023/11/25 11:01:23;;;;;;;2.97;0.90;;;8.60;92.90;;;;;;5004859;28;20456;-45
2023/11/25 11:04:00;;;;;;;1.60;1.00;;;8.60;92.90;;;;;;5005014;28;20318;-49
2023/11/25 11:06:33;;;;;;;2.47;1.20;;;8.70;92.90;;;;;;5010014;28;20420;-46
2023/11/25 11:09:04;;;;;;;5.03;0.97;;;8.70;92.90;;;;;;5006945;28;20272;-48
2023/11/25 11:11:46;;;;;;;4.05;1.35;;;8.60;92.90;;;;;;5003584;28;20562;-45
2023/11/25 11:14:16;;;;;;;7.03;1.77;;;8.60;92.90;;;;;;5008080;28;20217;-45
2023/11/25 11:16:52;;;;;;;3.60;1.30;;;8.70;93.20;;;;;;5010017;28;20428;-46
2023/11/25 11:19:24;;;;;;;1.93;0.80;;;8.60;93.00;;;;;;5002614;28;20311;-46
2023/11/25 11:22:03;;;;;;;3.15;1.20;;;8.60;93.10;;;;;;5007180;28;20637;-45
2023/11/25 11:24:39;;;;;;;3.78;1.40;;;8.60;93.00;;;;;;5006697;28;20220;-48
2023/11/25 11:27:18;;;;;;;5.68;1.90;;;8.60;93.20;;;;;;4999686;28;20494;-47
2023/11/25 11:29:52;;;;;;;2.80;1.70;;;8.60;93.50;;;;;;5007347;28;20563;-49
2023/11/25 11:32:29;;;;;;;4.28;1.65;;;8.60;93.40;;;;;;5002975;28;20464;-47
2023/11/25 11:34:57;;;;;;;5.72;1.65;;;8.60;93.30;;;;;;5006233;28;20204;-46
2023/11/25 11:37:37;;;;;;;3.75;1.70;;;8.60;93.30;;;;;;5009388;28;20248;-45
2023/11/25 11:40:06;;;;;;;3.17;1.67;;;8.60;93.50;;;;;;5004678;28;20221;-43
2023/11/25 11:42:36;;;;;;;1.88;1.40;;;8.50;93.40;;;;;;5008240;28;21027;-47
2023/11/25 11:45:18;;;;;;;5.65;1.58;;;8.50;93.40;;;;;;5009295;28;20192;-46
2023/11/25 11:47:51;;;;;;;4.78;2.03;;;8.50;93.60;;;;;;5006199;28;20242;-48
2023/11/25 11:50:20;;;;;;;4.55;2.40;;;8.40;94.50;;;;;;5005744;28;20196;-46
2023/11/25 11:53:12;;;;;;;3.60;2.00;;;8.40;94.30;;;;;;5008119;28;20743;-44
2023/11/25 11:55:44;;;;;;;4.55;2.08;;;8.40;94.30;;;;;;5007113;28;20206;-44
2023/11/25 11:58:13;;;;;;;7.50;2.30;;;8.40;94.20;;;;;;5008298;28;20255;-48
2023/11/25 12:00:49;;;;;;;4.20;1.70;;;8.40;94.30;;;;;;5008620;28;20199;-44
2023/11/25 12:03:19;;;;;;;9.73;1.80;;;8.40;94.40;;;;;;5008667;28;20217;-46
2023/11/25 12:05:47;;;;;;;5.03;2.22;;;8.40;94.20;;;;;;5003242;28;20254;-46
2023/11/25 12:08:15;;;;;;;6.15;2.58;;;8.40;94.50;;;;;;5009377;28;20222;-44
2023/11/25 12:10:43;;;;;;;6.85;2.42;;;8.40;94.40;;;;;;5005808;28;20203;-45
2023/11/25 12:13:12;;;;;;;7.75;1.90;;;8.40;94.20;;;;;;5008269;28;20230;-44
2023/11/25 12:15:40;;;;;;;3.40;2.33;;;8.40;94.20;;;;;;5009285;28;20205;-44
2023/11/25 12:18:14;;;;;;;5.03;2.15;;;8.40;94.20;;;;;;5003505;28;20288;-47
2023/11/25 12:20:44;;;;;;;2.35;1.77;;;8.40;94.20;;;;;;5006775;28;20197;-47
2023/11/25 12:23:12;;;;;;;3.70;1.73;;;8.40;94.20;;;;;;5010067;28;20231;-45
2023/11/25 12:25:41;;;;;;;3.75;1.85;;;8.40;94.20;;;;;;5010134;28;20250;-48
2023/11/25 12:28:11;;;;;;;6.47;2.22;;;8.40;94.20;;;;;;5010497;28;20240;-48
2023/11/25 12:30:40;;;;;;;3.22;1.45;;;8.40;94.20;;;;;;5011687;28;20276;-49
2023/11/25 12:33:10;;;;;;;6.18;1.75;;;8.40;94.10;;;;;;5011414;28;20236;-44
2023/11/25 12:35:43;;;;;;;3.55;1.48;;;8.40;94.10;;;;;;5024589;28;20244;-45
2023/11/25 12:38:15;;;;;;;4.35;1.48;;;8.40;94.10;;;;;;5019906;28;20223;-46
2023/11/25 12:40:45;;;;;;;6.85;1.73;;;8.40;94.10;;;;;;5027785;28;20284;-45
2023/11/25 12:43:14;;;;;;;6.22;1.70;;;8.40;94.00;;;;;;5021815;28;20699;-44
2023/11/25 12:45:45;;;;;;;3.30;1.50;;;8.30;94.00;;;;;;5012343;28;20209;-46
2023/11/25 12:48:19;;;;;;;3.42;1.60;;;8.30;94.00;;;;;;5009957;28;20228;-46
2023/11/25 12:51:03;;;;;;;4.63;1.80;;;8.30;94.00;;;;;;5012608;28;20197;-47
2023/11/25 12:53:32;;;;;;;2.88;1.55;;;8.30;94.00;;;;;;5009224;28;20309;-45
2023/11/25 12:56:01;;;;;;;7.00;1.60;;;8.30;94.00;;;;;;5007717;28;20201;-45
2023/11/25 12:58:29;;;;;;;3.45;1.30;;;8.40;94.10;;;;;;5011416;28;20218;-46
2023/11/25 13:00:58;;;;;;;4.25;1.40;;;8.40;94.00;;;;;;5011656;28;20223;-44
2023/11/25 13:03:30;;;;;;;5.63;1.65;;;8.40;94.00;;;;;;5011989;28;20303;-44
2023/11/25 13:06:00;;;;;;;2.83;1.48;;;8.40;94.00;;;;;;5009705;28;20194;-45
2023/11/25 13:08:31;;;;;;;8.13;1.77;;;8.40;94.00;;;;;;5011878;28;20311;-45
2023/11/25 13:11:03;;;;;;;6.18;2.10;;;8.30;94.00;;;;;;5009082;28;20264;-44